Gladehill, Virginia
Current Conditions -  °F | °C
As of 1:54 PM on Monday 22 Dec 2014 (Local Time) from KROA Reporting Station
Haze Haze  
Wind Chill: 32°   Ceiling: 700
Heat Index: 36°   Visibility: 2.5mi
Dew Point: 33°   Wind: 5mph
Humidity: 89%   Direction: 140°SE
Pressure: 30.1"   Gusts: NA
Location:  36.99°N, 79.77°W
Report Text: KROA 221854Z 14004KT 2 1/2SM BR OVC007 02/01 A3010 RMK AO2 SLP201 T00220006
Loading
Personal Weather Stations






























Interactive Weather Map New forecast layout! Learn more

10-Day Weather Forecast

Advertisements
Track Severe Weather on mobile